Time;durP1;ratioP1;P1;durP2;ratioP2;P2;SDS_P1;SDS_P2;PMS_P1;PMS_P2;Temp;Humidity;BMP_temperature;BMP_pressure;BME280_temperature;BME280_humidity;BME280_pressure;Samples;Min_cycle;Max_cycle;Signal;HPM_P1;HPM_P2
2022/02/17 00:01:13;;;;;;;;;;;;;;;;;;5044336;28;19960;-72
2022/02/17 00:03:39;;;;;;;;;;;;;;;;;;5039546;28;19955;-73
2022/02/17 00:06:05;;;;;;;;;;;;;;;;;;5046779;28;19971;-73
2022/02/17 00:08:32;;;;;;;;;;;;;;;;;;5042845;28;19972;-73
2022/02/17 00:10:58;;;;;;;;;;;;;;;;;;5042249;28;19967;-72
2022/02/17 00:13:25;;;;;;;;;;;;;;;;;;5043043;28;19964;-72
2022/02/17 00:15:51;;;;;;;;;;;;;;;;;;5047817;28;20456;-72
2022/02/17 00:18:21;;;;;;;;;;;;;;;;;;5045562;28;19948;-72
2022/02/17 00:20:47;;;;;;;;;;;;;;;;;;5038219;28;21275;-73
2022/02/17 00:23:13;;;;;;;;;;;;;;;;;;5042990;28;19983;-73
2022/02/17 00:25:39;;;;;;;;;;;;;;;;;;5042645;28;19956;-72
2022/02/17 00:28:06;;;;;;;;;;;;;;;;;;5041857;28;20353;-72
2022/02/17 00:30:32;;;;;;;;;;;;;;;;;;5043051;28;19960;-72
2022/02/17 00:32:58;;;;;;;;;;;;;;;;;;5043748;28;19963;-72
2022/02/17 00:35:24;;;;;;;;;;;;;;;;;;5043627;28;19971;-72
2022/02/17 00:37:50;;;;;;;;;;;;;;;;;;5043559;28;19971;-72
2022/02/17 00:40:17;;;;;;;;;;;;;;;;;;5042596;28;19952;-72
2022/02/17 00:42:43;;;;;;;;;;;;;;;;;;5041763;28;19963;-72
2022/02/17 00:45:09;;;;;;;;;;;;;;;;;;5041864;28;20377;-73
2022/02/17 00:47:35;;;;;;;;;;;;;;;;;;5043392;28;19976;-72
2022/02/17 00:50:01;;;;;;;;;;;;;;;;;;5041838;28;19976;-72
2022/02/17 00:52:27;;;;;;;;;;;;;;;;;;5043995;28;19979;-72
2022/02/17 00:54:54;;;;;;;;;;;;;;;;;;5043177;28;19948;-72
2022/02/17 00:57:20;;;;;;;;;;;;;;;;;;5042691;28;19956;-72
2022/02/17 00:59:46;;;;;;;;;;;;;;;;;;5044675;28;19978;-73
2022/02/17 01:02:12;;;;;;;;;;;;;;;;;;5042100;28;19948;-73
2022/02/17 01:04:38;;;;;;;;;;;;;;;;;;5038262;28;20636;-71
2022/02/17 01:07:05;;;;;;;;;;;;;;;;;;5042411;28;19963;-72
2022/02/17 01:09:31;;;;;;;;;;;;;;;;;;5038335;28;20191;-72
2022/02/17 01:11:57;;;;;;;;;;;;;;;;;;5039014;28;20055;-72
2022/02/17 01:14:23;;;;;;;;;;;;;;;;;;5046900;28;19917;-72
2022/02/17 01:16:50;;;;;;;;;;;;;;;;;;5044676;28;19952;-72
2022/02/17 01:19:16;;;;;;;;;;;;;;;;;;5041527;28;19956;-71
2022/02/17 01:21:42;;;;;;;;;;;;;;;;;;5041439;28;19956;-72
2022/02/17 01:24:08;;;;;;;;;;;;;;;;;;5041532;28;19967;-72
2022/02/17 01:26:34;;;;;;;;;;;;;;;;;;5039087;28;19986;-72
2022/02/17 01:29:00;;;;;;;;;;;;;;;;;;5044331;28;20681;-73
2022/02/17 01:31:27;;;;;;;;;;;;;;;;;;5043783;28;19956;-71
2022/02/17 01:33:53;;;;;;;;;;;;;;;;;;5028402;28;20025;-71
2022/02/17 01:36:19;;;;;;;;;;;;;;;;;;5040947;28;20341;-71
2022/02/17 01:38:45;;;;;;;;;;;;;;;;;;5040662;28;19964;-76
2022/02/17 01:41:12;;;;;;;;;;;;;;;;;;5039193;28;19956;-72
2022/02/17 01:43:38;;;;;;;;;;;;;;;;;;5040800;28;20018;-72
2022/02/17 01:46:05;;;;;;;;;;;;;;;;;;5040664;28;20005;-72
2022/02/17 01:48:31;;;;;;;;;;;;;;;;;;5041777;28;19944;-72
2022/02/17 01:50:57;;;;;;;;;;;;;;;;;;5043128;28;20186;-72
2022/02/17 01:53:23;;;;;;;;;;;;;;;;;;5044208;28;20011;-73
2022/02/17 01:55:50;;;;;;;;;;;;;;;;;;5037276;28;19964;-73
2022/02/17 01:58:16;;;;;;;;;;;;;;;;;;5043930;28;20442;-72
2022/02/17 02:00:42;;;;;;;;;;;;;;;;;;5041295;28;19964;-72
2022/02/17 02:03:08;;;;;;;;;;;;;;;;;;5037713;28;19953;-73
2022/02/17 02:05:34;;;;;;;;;;;;;;;;;;5040403;28;19960;-73
2022/02/17 02:08:00;;;;;;;;;;;;;;;;;;5039764;28;19957;-72
2022/02/17 02:10:27;;;;;;;;;;;;;;;;;;5040927;28;20344;-72
2022/02/17 02:12:53;;;;;;;;;;;;;;;;;;5041316;28;19969;-72
2022/02/17 02:15:19;;;;;;;;;;;;;;;;;;5039284;28;20379;-73
2022/02/17 02:17:45;;;;;;;;;;;;;;;;;;5039482;28;19968;-72
2022/02/17 02:20:11;;;;;;;;;;;;;;;;;;5043584;28;19952;-72
2022/02/17 02:22:38;;;;;;;;;;;;;;;;;;5038060;28;20392;-71
2022/02/17 02:25:04;;;;;;;;;;;;;;;;;;5039368;28;19948;-72
2022/02/17 02:27:30;;;;;;;;;;;;;;;;;;5039715;28;19975;-71
2022/02/17 02:29:56;;;;;;;;;;;;;;;;;;5042656;28;19944;-72
2022/02/17 02:32:23;;;;;;;;;;;;;;;;;;5045213;28;19952;-71
2022/02/17 02:34:49;;;;;;;;;;;;;;;;;;5034638;28;20395;-72
2022/02/17 02:37:15;;;;;;;;;;;;;;;;;;5037034;28;19992;-72
2022/02/17 02:39:41;;;;;;;;;;;;;;;;;;5041192;28;20542;-73
2022/02/17 02:42:07;;;;;;;;;;;;;;;;;;5042587;28;19963;-72
2022/02/17 02:44:34;;;;;;;;;;;;;;;;;;5042421;28;20006;-72
2022/02/17 02:47:00;;;;;;;;;;;;;;;;;;5038734;28;19913;-72
2022/02/17 02:49:26;;;;;;;;;;;;;;;;;;5038292;28;19955;-71
2022/02/17 02:51:52;;;;;;;;;;;;;;;;;;5042793;28;20325;-72
2022/02/17 02:54:18;;;;;;;;;;;;;;;;;;5043174;28;19957;-71
2022/02/17 02:56:45;;;;;;;;;;;;;;;;;;5043084;28;19987;-71
2022/02/17 02:59:11;;;;;;;;;;;;;;;;;;5041695;28;20403;-71
2022/02/17 03:01:37;;;;;;;;;;;;;;;;;;5038924;28;19960;-70
2022/02/17 03:04:03;;;;;;;;;;;;;;;;;;5038305;28;19960;-71
2022/02/17 03:06:29;;;;;;;;;;;;;;;;;;5042565;28;20370;-71
2022/02/17 03:08:56;;;;;;;;;;;;;;;;;;5038686;28;19964;-71
2022/02/17 03:11:22;;;;;;;;;;;;;;;;;;5039420;28;20385;-72
2022/02/17 03:13:48;;;;;;;;;;;;;;;;;;5039765;28;19953;-72
2022/02/17 03:16:14;;;;;;;;;;;;;;;;;;5045141;28;19960;-71
2022/02/17 03:18:40;;;;;;;;;;;;;;;;;;5040483;28;19960;-72
2022/02/17 03:21:06;;;;;;;;;;;;;;;;;;5045928;28;19971;-72
2022/02/17 03:23:33;;;;;;;;;;;;;;;;;;5039513;28;20397;-72
2022/02/17 03:26:00;;;;;;;;;;;;;;;;;;5041392;28;20846;-71
2022/02/17 03:28:26;;;;;;;;;;;;;;;;;;5043745;28;19960;-71
2022/02/17 03:30:54;;;;;;;;;;;;;;;;;;5043096;28;19956;-72
2022/02/17 03:33:21;;;;;;;;;;;;;;;;;;5045906;28;19960;-72
2022/02/17 03:35:47;;;;;;;;;;;;;;;;;;5040008;28;19948;-72
2022/02/17 03:38:13;;;;;;;;;;;;;;;;;;5045126;28;19952;-71
2022/02/17 03:40:39;;;;;;;;;;;;;;;;;;5040840;28;19949;-73
2022/02/17 03:43:05;;;;;;;;;;;;;;;;;;5045195;28;20066;-73
2022/02/17 03:45:32;;;;;;;;;;;;;;;;;;5044342;28;20554;-72
2022/02/17 03:47:58;;;;;;;;;;;;;;;;;;5040104;28;19944;-73
2022/02/17 03:50:24;;;;;;;;;;;;;;;;;;5046396;28;19964;-73
2022/02/17 03:52:50;;;;;;;;;;;;;;;;;;5040505;28;19960;-74
2022/02/17 03:55:16;;;;;;;;;;;;;;;;;;5044774;28;19952;-73
2022/02/17 03:57:44;;;;;;;;;;;;;;;;;;5045093;28;19924;-73
2022/02/17 04:00:10;;;;;;;;;;;;;;;;;;5045067;28;19924;-72
2022/02/17 04:02:36;;;;;;;;;;;;;;;;;;5046580;28;19975;-72
2022/02/17 04:05:03;;;;;;;;;;;;;;;;;;5047889;28;20069;-72
2022/02/17 04:07:29;;;;;;;;;;;;;;;;;;5046494;28;19957;-72
2022/02/17 04:09:55;;;;;;;;;;;;;;;;;;5035775;28;19963;-72
2022/02/17 04:12:21;;;;;;;;;;;;;;;;;;5044694;28;20002;-72
2022/02/17 04:14:47;;;;;;;;;;;;;;;;;;5034774;28;20605;-71
2022/02/17 04:17:13;;;;;;;;;;;;;;;;;;5042714;28;20017;-71
2022/02/17 04:19:40;;;;;;;;;;;;;;;;;;5041115;28;19971;-71
2022/02/17 04:22:12;;;;;;;;;;;;;;;;;;5041407;28;19983;-71
2022/02/17 04:24:40;;;;;;;;;;;;;;;;;;5041109;28;19967;-72
2022/02/17 04:27:06;;;;;;;;;;;;;;;;;;5040473;28;20005;-70
2022/02/17 04:29:33;;;;;;;;;;;;;;;;;;5043016;28;19963;-70
2022/02/17 04:31:59;;;;;;;;;;;;;;;;;;5040748;28;19963;-71
2022/02/17 04:34:25;;;;;;;;;;;;;;;;;;5041010;28;19963;-71
2022/02/17 04:36:51;;;;;;;;;;;;;;;;;;5041477;28;19963;-71
2022/02/17 04:39:17;;;;;;;;;;;;;;;;;;5039847;28;19963;-71
2022/02/17 04:44:29;;;;;;;;;;;;;;;;;;5039735;28;19968;-72
2022/02/17 04:46:55;;;;;;;;;;;;;;;;;;5046634;28;19949;-73
2022/02/17 04:49:21;;;;;;;;;;;;;;;;;;5039857;28;19976;-72
2022/02/17 04:51:47;;;;;;;;;;;;;;;;;;5043928;28;19999;-71
2022/02/17 04:54:13;;;;;;;;;;;;;;;;;;5043131;28;20466;-71
2022/02/17 04:56:40;;;;;;;;;;;;;;;;;;5039725;28;20115;-71
2022/02/17 04:59:06;;;;;;;;;;;;;;;;;;5043501;28;20034;-72
2022/02/17 05:01:32;;;;;;;;;;;;;;;;;;5042668;28;20489;-72
2022/02/17 05:03:58;;;;;;;;;;;;;;;;;;5045074;28;19960;-72
2022/02/17 05:06:25;;;;;;;;;;;;;;;;;;5046197;28;19957;-72
2022/02/17 05:08:51;;;;;;;;;;;;;;;;;;5045839;28;19983;-73
2022/02/17 05:11:17;;;;;;;;;;;;;;;;;;5041684;28;19953;-72
2022/02/17 05:13:43;;;;;;;;;;;;;;;;;;5033912;28;19972;-72
2022/02/17 05:16:09;;;;;;;;;;;;;;;;;;5040350;28;19935;-72
2022/02/17 05:18:35;;;;;;;;;;;;;;;;;;5034041;28;19959;-72
2022/02/17 05:21:02;;;;;;;;;;;;;;;;;;5042846;28;19948;-74
2022/02/17 05:23:28;;;;;;;;;;;;;;;;;;5039898;28;19963;-73
2022/02/17 05:25:54;;;;;;;;;;;;;;;;;;5041203;28;19956;-73
2022/02/17 05:28:20;;;;;;;;;;;;;;;;;;5042184;28;20357;-75
2022/02/17 05:30:47;;;;;;;;;;;;;;;;;;5040478;28;20348;-73
2022/02/17 05:33:13;;;;;;;;;;;;;;;;;;5036112;28;19952;-72
2022/02/17 05:35:39;;;;;;;;;;;;;;;;;;5040072;28;19975;-72
2022/02/17 05:38:05;;;;;;;;;;;;;;;;;;5049239;28;19956;-73
2022/02/17 05:40:31;;;;;;;;;;;;;;;;;;5040937;28;19960;-72
2022/02/17 05:42:58;;;;;;;;;;;;;;;;;;5046637;28;19959;-73
2022/02/17 05:45:25;;;;;;;;;;;;;;;;;;5041634;28;19952;-73
2022/02/17 05:47:52;;;;;;;;;;;;;;;;;;5042371;28;20620;-73
2022/02/17 05:50:18;;;;;;;;;;;;;;;;;;5041780;28;19955;-72
2022/02/17 05:52:44;;;;;;;;;;;;;;;;;;5040598;28;20391;-73
2022/02/17 05:55:11;;;;;;;;;;;;;;;;;;5045748;28;20412;-73
2022/02/17 05:57:37;;;;;;;;;;;;;;;;;;5045227;28;19952;-72
2022/02/17 06:00:03;;;;;;;;;;;;;;;;;;5040389;28;19987;-73
2022/02/17 06:02:29;;;;;;;;;;;;;;;;;;5040794;28;20462;-73
2022/02/17 06:04:55;;;;;;;;;;;;;;;;;;5051793;28;19967;-73
2022/02/17 06:07:22;;;;;;;;;;;;;;;;;;5036097;28;19952;-73
2022/02/17 06:09:48;;;;;;;;;;;;;;;;;;5039456;28;19952;-73
2022/02/17 06:12:14;;;;;;;;;;;;;;;;;;5048270;28;20036;-73
2022/02/17 06:14:40;;;;;;;;;;;;;;;;;;5042606;28;20553;-73
2022/02/17 06:17:06;;;;;;;;;;;;;;;;;;5040852;28;19959;-73
2022/02/17 06:19:33;;;;;;;;;;;;;;;;;;5043256;28;20385;-73
2022/02/17 06:21:59;;;;;;;;;;;;;;;;;;5045759;28;20648;-72
2022/02/17 06:24:25;;;;;;;;;;;;;;;;;;5042673;28;19952;-71
2022/02/17 06:26:51;;;;;;;;;;;;;;;;;;5044058;28;19948;-73
2022/02/17 06:29:17;;;;;;;;;;;;;;;;;;5040555;28;20029;-72
2022/02/17 06:31:44;;;;;;;;;;;;;;;;;;5037553;28;19973;-71
2022/02/17 06:34:10;;;;;;;;;;;;;;;;;;5033519;28;19967;-71
2022/02/17 06:36:36;;;;;;;;;;;;;;;;;;5038631;28;20400;-73
2022/02/17 06:39:02;;;;;;;;;;;;;;;;;;5040354;28;19964;-72
2022/02/17 06:41:29;;;;;;;;;;;;;;;;;;5037431;28;20410;-72
2022/02/17 06:43:55;;;;;;;;;;;;;;;;;;5044811;28;19963;-73
2022/02/17 06:46:21;;;;;;;;;;;;;;;;;;5036058;28;20484;-72
2022/02/17 06:48:47;;;;;;;;;;;;;;;;;;5035336;28;19956;-73
2022/02/17 06:51:13;;;;;;;;;;;;;;;;;;5041237;28;19925;-72
2022/02/17 06:53:40;;;;;;;;;;;;;;;;;;5042881;28;19956;-72
2022/02/17 06:56:06;;;;;;;;;;;;;;;;;;5042635;28;19953;-73
2022/02/17 06:58:32;;;;;;;;;;;;;;;;;;5043664;28;20024;-72
2022/02/17 07:00:59;;;;;;;;;;;;;;;;;;5045003;28;19960;-73
2022/02/17 07:03:25;;;;;;;;;;;;;;;;;;5041837;28;19959;-72
2022/02/17 07:05:52;;;;;;;;;;;;;;;;;;5045515;28;19967;-72
2022/02/17 07:08:18;;;;;;;;;;;;;;;;;;5044817;28;20009;-72
2022/02/17 07:10:56;;;;;;;;;;;;;;;;;;5045722;28;20011;-71
2022/02/17 07:13:22;;;;;;;;;;;;;;;;;;5043459;28;20646;-73
2022/02/17 07:15:49;;;;;;;;;;;;;;;;;;5045917;28;20544;-73
2022/02/17 07:18:15;;;;;;;;;;;;;;;;;;5047445;28;19956;-73
2022/02/17 07:20:41;;;;;;;;;;;;;;;;;;5044811;28;19960;-73
2022/02/17 07:23:07;;;;;;;;;;;;;;;;;;5044450;28;20073;-73
2022/02/17 07:25:33;;;;;;;;;;;;;;;;;;5044583;28;19948;-73
2022/02/17 07:27:59;;;;;;;;;;;;;;;;;;5046389;28;19956;-73
2022/02/17 07:30:26;;;;;;;;;;;;;;;;;;5045212;28;19957;-73
2022/02/17 07:32:52;;;;;;;;;;;;;;;;;;5047173;28;19964;-73
2022/02/17 07:35:18;;;;;;;;;;;;;;;;;;5043999;28;20353;-72
2022/02/17 07:37:44;;;;;;;;;;;;;;;;;;5047173;28;19964;-72
2022/02/17 07:40:11;;;;;;;;;;;;;;;;;;5041752;28;19949;-72
2022/02/17 07:42:37;;;;;;;;;;;;;;;;;;5042639;28;20032;-72
2022/02/17 07:45:03;;;;;;;;;;;;;;;;;;5045921;28;20009;-72
2022/02/17 07:47:30;;;;;;;;;;;;;;;;;;5043400;28;19960;-72
2022/02/17 07:49:56;;;;;;;;;;;;;;;;;;5045984;28;19967;-72
2022/02/17 07:52:23;;;;;;;;;;;;;;;;;;5041656;28;19952;-72
2022/02/17 07:54:49;;;;;;;;;;;;;;;;;;5042615;28;20427;-72
2022/02/17 07:57:15;;;;;;;;;;;;;;;;;;5044217;28;19963;-72
2022/02/17 07:59:41;;;;;;;;;;;;;;;;;;5042931;28;19959;-72
2022/02/17 08:02:07;;;;;;;;;;;;;;;;;;5044300;28;20015;-72
2022/02/17 08:04:36;;;;;;;;;;;;;;;;;;5045080;28;19944;-72
2022/02/17 08:07:02;;;;;;;;;;;;;;;;;;5048400;28;19944;-72
2022/02/17 08:09:29;;;;;;;;;;;;;;;;;;5041090;28;20364;-72
2022/02/17 08:11:55;;;;;;;;;;;;;;;;;;5044733;28;19964;-72
2022/02/17 08:14:21;;;;;;;;;;;;;;;;;;5040328;28;20329;-72
2022/02/17 08:16:47;;;;;;;;;;;;;;;;;;5042182;28;19956;-73
2022/02/17 08:19:13;;;;;;;;;;;;;;;;;;5036048;28;19960;-72
2022/02/17 08:21:40;;;;;;;;;;;;;;;;;;5044270;28;19952;-72
2022/02/17 08:24:06;;;;;;;;;;;;;;;;;;5044649;28;19956;-71
2022/02/17 08:26:32;;;;;;;;;;;;;;;;;;5042270;28;19952;-72
2022/02/17 08:28:59;;;;;;;;;;;;;;;;;;5041461;28;19964;-72
2022/02/17 08:31:25;;;;;;;;;;;;;;;;;;5043604;28;19944;-72
2022/02/17 08:33:51;;;;;;;;;;;;;;;;;;5047260;28;19956;-73
2022/02/17 08:36:17;;;;;;;;;;;;;;;;;;5045904;28;19983;-73
2022/02/17 08:38:44;;;;;;;;;;;;;;;;;;5040124;28;19960;-73
2022/02/17 08:41:10;;;;;;;;;;;;;;;;;;5043238;28;20443;-73
2022/02/17 08:43:36;;;;;;;;;;;;;;;;;;5043886;28;19994;-72
2022/02/17 08:46:02;;;;;;;;;;;;;;;;;;5042237;28;19956;-73
2022/02/17 08:48:28;;;;;;;;;;;;;;;;;;5046961;28;19970;-71
2022/02/17 08:50:54;;;;;;;;;;;;;;;;;;5043364;28;19952;-73
2022/02/17 08:53:21;;;;;;;;;;;;;;;;;;5044323;28;20375;-72
2022/02/17 08:55:47;;;;;;;;;;;;;;;;;;5040409;28;19955;-73
2022/02/17 08:58:13;;;;;;;;;;;;;;;;;;5044576;28;19948;-72
2022/02/17 09:00:39;;;;;;;;;;;;;;;;;;5044366;28;19960;-72
2022/02/17 09:03:06;;;;;;;;;;;;;;;;;;5043704;28;19961;-73
2022/02/17 09:05:32;;;;;;;;;;;;;;;;;;5043113;28;19965;-72
2022/02/17 09:07:58;;;;;;;;;;;;;;;;;;5037936;28;20051;-72
2022/02/17 09:10:25;;;;;;;;;;;;;;;;;;5043181;28;20356;-72
2022/02/17 09:12:51;;;;;;;;;;;;;;;;;;5041825;28;20024;-72
2022/02/17 09:15:17;;;;;;;;;;;;;;;;;;5046849;28;19963;-72
2022/02/17 09:17:46;;;;;;;;;;;;;;;;;;5042130;28;19960;-72
2022/02/17 09:20:12;;;;;;;;;;;;;;;;;;5046024;28;19964;-72
2022/02/17 09:22:39;;;;;;;;;;;;;;;;;;5043840;28;19956;-72
2022/02/17 09:25:05;;;;;;;;;;;;;;;;;;5041118;28;19948;-72
2022/02/17 09:27:31;;;;;;;;;;;;;;;;;;5045196;28;19967;-72
2022/02/17 09:29:58;;;;;;;;;;;;;;;;;;5039592;28;19952;-72
2022/02/17 09:32:24;;;;;;;;;;;;;;;;;;5046140;28;19960;-72
2022/02/17 09:34:50;;;;;;;;;;;;;;;;;;5046803;28;19968;-72
2022/02/17 09:37:17;;;;;;;;;;;;;;;;;;5041459;28;19948;-72
2022/02/17 09:39:44;;;;;;;;;;;;;;;;;;5038743;28;20055;-72
2022/02/17 09:42:10;;;;;;;;;;;;;;;;;;5045387;28;19956;-72
2022/02/17 09:44:36;;;;;;;;;;;;;;;;;;5044340;28;19990;-72
2022/02/17 09:47:03;;;;;;;;;;;;;;;;;;5042144;28;20399;-72
2022/02/17 09:49:32;;;;;;;;;;;;;;;;;;5039659;28;19959;-72
2022/02/17 09:51:58;;;;;;;;;;;;;;;;;;5040053;28;19975;-72
2022/02/17 09:54:25;;;;;;;;;;;;;;;;;;5039086;28;19968;-73
2022/02/17 09:56:51;;;;;;;;;;;;;;;;;;5039712;28;19963;-72
2022/02/17 09:59:17;;;;;;;;;;;;;;;;;;5039937;28;19948;-72
2022/02/17 10:01:43;;;;;;;;;;;;;;;;;;5045166;28;19963;-72
2022/02/17 10:04:09;;;;;;;;;;;;;;;;;;5042538;28;20010;-73
2022/02/17 10:06:35;;;;;;;;;;;;;;;;;;5037609;28;19952;-73
2022/02/17 10:09:02;;;;;;;;;;;;;;;;;;5043005;28;19963;-73
2022/02/17 10:11:28;;;;;;;;;;;;;;;;;;5043525;28;19947;-72
2022/02/17 10:13:54;;;;;;;;;;;;;;;;;;5037072;28;20013;-72
2022/02/17 10:16:20;;;;;;;;;;;;;;;;;;5035763;28;20020;-73
2022/02/17 10:18:46;;;;;;;;;;;;;;;;;;5039205;28;19955;-72
2022/02/17 10:21:15;;;;;;;;;;;;;;;;;;5042315;28;20340;-72
2022/02/17 10:23:42;;;;;;;;;;;;;;;;;;5038427;28;23094;-72
2022/02/17 10:26:08;;;;;;;;;;;;;;;;;;5045049;28;19964;-72
2022/02/17 10:28:34;;;;;;;;;;;;;;;;;;5045061;28;19959;-73
2022/02/17 10:31:00;;;;;;;;;;;;;;;;;;5043349;28;19998;-72
2022/02/17 10:33:27;;;;;;;;;;;;;;;;;;5045963;28;19975;-73
2022/02/17 10:35:53;;;;;;;;;;;;;;;;;;5045434;28;19963;-72
2022/02/17 10:38:20;;;;;;;;;;;;;;;;;;5045157;28;19953;-72
2022/02/17 10:40:46;;;;;;;;;;;;;;;;;;5047792;28;20376;-73
2022/02/17 10:43:12;;;;;;;;;;;;;;;;;;5048093;28;19960;-72
2022/02/17 10:45:39;;;;;;;;;;;;;;;;;;5041136;28;19963;-72
2022/02/17 10:48:05;;;;;;;;;;;;;;;;;;5047286;28;19955;-73
2022/02/17 10:50:31;;;;;;;;;;;;;;;;;;5043927;28;19960;-72
2022/02/17 10:52:57;;;;;;;;;;;;;;;;;;5044337;28;19956;-73
2022/02/17 10:55:23;;;;;;;;;;;;;;;;;;5044634;28;19994;-72
2022/02/17 10:57:51;;;;;;;;;;;;;;;;;;5041567;28;19959;-72
2022/02/17 11:00:17;;;;;;;;;;;;;;;;;;5046375;28;19963;-72
2022/02/17 11:02:43;;;;;;;;;;;;;;;;;;5044163;28;19956;-72
2022/02/17 11:05:11;;;;;;;;;;;;;;;;;;5039442;28;19987;-72
2022/02/17 11:07:37;;;;;;;;;;;;;;;;;;5042914;28;19960;-72
2022/02/17 11:10:03;;;;;;;;;;;;;;;;;;5048167;28;19956;-72
2022/02/17 11:12:30;;;;;;;;;;;;;;;;;;5038894;28;19987;-73
2022/02/17 11:14:56;;;;;;;;;;;;;;;;;;5047632;28;19976;-72
2022/02/17 11:17:22;;;;;;;;;;;;;;;;;;5046031;28;20391;-72
2022/02/17 11:19:48;;;;;;;;;;;;;;;;;;5044329;28;19948;-72
2022/02/17 11:22:16;;;;;;;;;;;;;;;;;;5045748;28;20381;-72
2022/02/17 11:24:42;;;;;;;;;;;;;;;;;;5046071;28;19960;-72
2022/02/17 11:27:09;;;;;;;;;;;;;;;;;;5045794;28;20032;-73
2022/02/17 11:29:36;;;;;;;;;;;;;;;;;;5049409;28;20340;-72
2022/02/17 11:32:02;;;;;;;;;;;;;;;;;;5045672;28;20452;-72
2022/02/17 11:34:29;;;;;;;;;;;;;;;;;;5047283;28;19975;-72
2022/02/17 11:36:55;;;;;;;;;;;;;;;;;;5046715;28;19917;-72
2022/02/17 11:39:21;;;;;;;;;;;;;;;;;;5042763;28;19968;-72
2022/02/17 11:41:48;;;;;;;;;;;;;;;;;;5040571;28;19944;-73
2022/02/17 11:44:16;;;;;;;;;;;;;;;;;;5044015;28;19974;-72
2022/02/17 11:46:44;;;;;;;;;;;;;;;;;;5047423;28;19956;-72
2022/02/17 11:49:10;;;;;;;;;;;;;;;;;;5042939;28;19956;-73
2022/02/17 11:51:37;;;;;;;;;;;;;;;;;;5041865;28;19967;-72
2022/02/17 11:54:15;;;;;;;;;;;;;;;;;;5046408;28;19968;-72
2022/02/17 11:56:44;;;;;;;;;;;;;;;;;;5042983;28;20009;-73
2022/02/17 11:59:10;;;;;;;;;;;;;;;;;;5041946;28;19960;-72
2022/02/17 12:01:36;;;;;;;;;;;;;;;;;;5045506;28;19960;-72
2022/02/17 12:04:04;;;;;;;;;;;;;;;;;;5040008;28;19917;-73
2022/02/17 12:06:31;;;;;;;;;;;;;;;;;;5041570;28;19968;-73
2022/02/17 12:08:57;;;;;;;;;;;;;;;;;;5046871;28;19955;-73
2022/02/17 12:11:24;;;;;;;;;;;;;;;;;;5048095;28;19991;-72
2022/02/17 12:13:50;;;;;;;;;;;;;;;;;;5046256;28;19953;-73
2022/02/17 12:16:16;;;;;;;;;;;;;;;;;;5045887;28;19956;-72
2022/02/17 12:18:42;;;;;;;;;;;;;;;;;;5040834;28;19959;-72
2022/02/17 12:21:10;;;;;;;;;;;;;;;;;;5048762;28;20377;-72
2022/02/17 12:23:36;;;;;;;;;;;;;;;;;;5039690;28;19952;-72
2022/02/17 12:26:03;;;;;;;;;;;;;;;;;;5044444;28;19952;-72
2022/02/17 12:28:29;;;;;;;;;;;;;;;;;;5042298;28;19957;-72
2022/02/17 12:30:55;;;;;;;;;;;;;;;;;;5044707;28;20431;-72
2022/02/17 12:33:21;;;;;;;;;;;;;;;;;;5045525;28;20424;-72
2022/02/17 12:35:47;;;;;;;;;;;;;;;;;;5045739;28;19956;-72
2022/02/17 12:38:14;;;;;;;;;;;;;;;;;;5045362;28;19948;-72
2022/02/17 12:40:40;;;;;;;;;;;;;;;;;;5044357;28;19956;-72
2022/02/17 12:43:06;;;;;;;;;;;;;;;;;;5040628;28;19978;-71
2022/02/17 12:45:32;;;;;;;;;;;;;;;;;;5043747;28;19960;-73
2022/02/17 12:47:58;;;;;;;;;;;;;;;;;;5043633;28;19952;-72
2022/02/17 12:50:25;;;;;;;;;;;;;;;;;;5042967;28;19952;-73
2022/02/17 12:52:51;;;;;;;;;;;;;;;;;;5047190;28;19963;-72
2022/02/17 12:55:17;;;;;;;;;;;;;;;;;;5042371;28;19928;-72
2022/02/17 12:57:43;;;;;;;;;;;;;;;;;;5037564;28;20829;-72
2022/02/17 13:00:11;;;;;;;;;;;;;;;;;;5042534;28;19971;-72
2022/02/17 13:02:37;;;;;;;;;;;;;;;;;;5044506;28;19959;-72
2022/02/17 13:05:03;;;;;;;;;;;;;;;;;;5045676;28;19960;-73
2022/02/17 13:07:33;;;;;;;;;;;;;;;;;;5045205;28;20408;-73
2022/02/17 13:09:59;;;;;;;;;;;;;;;;;;5041523;28;20024;-72
2022/02/17 13:12:25;;;;;;;;;;;;;;;;;;5041510;28;20015;-73
2022/02/17 13:14:52;;;;;;;;;;;;;;;;;;5045774;28;20021;-73
2022/02/17 13:17:23;;;;;;;;;;;;;;;;;;5039825;28;19983;-72
2022/02/17 13:19:57;;;;;;;;;;;;;;;;;;5086590;27;19978;-72
2022/02/17 13:22:23;;;;;;;;;;;;;;;;;;5074158;27;19927;-72
2022/02/17 13:24:49;;;;;;;;;;;;;;;;;;5082979;27;20368;-73
2022/02/17 13:27:15;;;;;;;;;;;;;;;;;;5082609;27;19956;-72
2022/02/17 13:29:41;;;;;;;;;;;;;;;;;;5083298;27;20432;-73
2022/02/17 13:32:07;;;;;;;;;;;;;;;;;;5082592;27;19964;-72
2022/02/17 13:34:36;;;;;;;;;;;;;;;;;;5080743;27;19963;-72
2022/02/17 13:37:02;;;;;;;;;;;;;;;;;;5083377;27;19952;-73
2022/02/17 13:39:28;;;;;;;;;;;;;;;;;;5082409;27;19959;-73
2022/02/17 13:41:54;;;;;;;;;;;;;;;;;;5084653;27;20026;-73
2022/02/17 13:44:20;;;;;;;;;;;;;;;;;;5081634;27;20689;-73
2022/02/17 13:46:47;;;;;;;;;;;;;;;;;;5079256;27;20068;-72
2022/02/17 13:49:13;;;;;;;;;;;;;;;;;;5083483;27;20101;-72
2022/02/17 13:51:39;;;;;;;;;;;;;;;;;;5109625;27;19944;-71
2022/02/17 13:54:06;;;;;;;;;;;;;;;;;;5083280;27;20337;-72
2022/02/17 13:56:32;;;;;;;;;;;;;;;;;;5114460;27;19967;-72
2022/02/17 13:58:59;;;;;;;;;;;;;;;;;;5086696;27;20442;-72
2022/02/17 14:01:25;;;;;;;;;;;;;;;;;;5078936;27;20403;-71
2022/02/17 14:03:51;;;;;;;;;;;;;;;;;;5113715;27;20013;-72
2022/02/17 14:06:18;;;;;;;;;;;;;;;;;;5082579;27;19967;-72
2022/02/17 14:08:44;;;;;;;;;;;;;;;;;;5081956;27;19951;-73
2022/02/17 14:11:10;;;;;;;;;;;;;;;;;;5083347;27;19954;-72
2022/02/17 14:13:36;;;;;;;;;;;;;;;;;;5079054;27;19999;-72
2022/02/17 14:16:02;;;;;;;;;;;;;;;;;;5081217;27;19954;-72
2022/02/17 14:18:29;;;;;;;;;;;;;;;;;;5084472;27;19974;-72
2022/02/17 14:20:55;;;;;;;;;;;;;;;;;;5081017;27;19912;-71
2022/02/17 14:23:21;;;;;;;;;;;;;;;;;;5084217;27;20062;-72
2022/02/17 14:25:47;;;;;;;;;;;;;;;;;;5079988;27;19948;-71
2022/02/17 14:28:13;;;;;;;;;;;;;;;;;;5076112;28;19948;-71
2022/02/17 14:30:44;;;;;;;;;;;;;;;;;;5068970;27;19948;-72
2022/02/17 14:33:11;;;;;;;;;;;;;;;;;;5068857;28;20020;-71
2022/02/17 14:35:37;;;;;;;;;;;;;;;;;;5068348;28;20536;-72
2022/02/17 14:38:03;;;;;;;;;;;;;;;;;;5072990;28;19967;-72
2022/02/17 14:40:29;;;;;;;;;;;;;;;;;;5064299;28;20324;-72
2022/02/17 14:42:55;;;;;;;;;;;;;;;;;;5065247;28;19955;-72
2022/02/17 14:45:21;;;;;;;;;;;;;;;;;;5066072;28;19959;-72
2022/02/17 14:47:51;;;;;;;;;;;;;;;;;;5067162;28;19952;-72
2022/02/17 14:50:17;;;;;;;;;;;;;;;;;;5069380;28;20347;-72
2022/02/17 14:52:43;;;;;;;;;;;;;;;;;;5066920;28;19955;-72
2022/02/17 14:55:10;;;;;;;;;;;;;;;;;;5071087;28;20360;-72
2022/02/17 14:57:36;;;;;;;;;;;;;;;;;;5066278;28;19975;-71
2022/02/17 15:00:03;;;;;;;;;;;;;;;;;;5064587;28;19972;-72
2022/02/17 15:02:29;;;;;;;;;;;;;;;;;;5064226;28;19964;-72
2022/02/17 15:04:55;;;;;;;;;;;;;;;;;;5066102;28;19959;-72
2022/02/17 15:07:21;;;;;;;;;;;;;;;;;;5066849;28;19975;-72
2022/02/17 15:09:47;;;;;;;;;;;;;;;;;;5067205;28;20002;-72
2022/02/17 15:12:14;;;;;;;;;;;;;;;;;;5062462;28;20437;-72
2022/02/17 15:14:40;;;;;;;;;;;;;;;;;;5069580;28;19952;-72
2022/02/17 15:17:06;;;;;;;;;;;;;;;;;;5067730;28;19967;-72
2022/02/17 15:22:18;;;;;;;;;;;;;;;;;;5064938;28;19952;-72
2022/02/17 15:24:44;;;;;;;;;;;;;;;;;;5066382;28;19969;-72
2022/02/17 15:27:12;;;;;;;;;;;;;;;;;;5070751;28;19956;-72
2022/02/17 15:29:39;;;;;;;;;;;;;;;;;;5067901;28;19959;-72
2022/02/17 15:32:05;;;;;;;;;;;;;;;;;;5067758;28;20364;-71
2022/02/17 15:34:31;;;;;;;;;;;;;;;;;;5065066;28;19960;-72
2022/02/17 15:36:57;;;;;;;;;;;;;;;;;;5068114;28;20384;-72
2022/02/17 15:39:24;;;;;;;;;;;;;;;;;;5060803;28;19972;-72
2022/02/17 15:41:50;;;;;;;;;;;;;;;;;;5060674;28;19990;-72
2022/02/17 15:44:16;;;;;;;;;;;;;;;;;;5065924;28;19956;-72
2022/02/17 15:46:42;;;;;;;;;;;;;;;;;;5065102;28;22974;-72
2022/02/17 15:49:09;;;;;;;;;;;;;;;;;;5066275;28;19952;-72
2022/02/17 15:51:35;;;;;;;;;;;;;;;;;;5066826;28;20602;-72
2022/02/17 15:54:01;;;;;;;;;;;;;;;;;;5066401;28;19971;-72
2022/02/17 15:56:27;;;;;;;;;;;;;;;;;;5065037;28;19958;-72
2022/02/17 15:58:53;;;;;;;;;;;;;;;;;;5063376;28;19972;-72
2022/02/17 16:01:20;;;;;;;;;;;;;;;;;;5068595;28;19971;-72
2022/02/17 16:03:46;;;;;;;;;;;;;;;;;;5066397;28;20046;-72
2022/02/17 16:06:12;;;;;;;;;;;;;;;;;;5062604;28;19952;-72
2022/02/17 16:08:39;;;;;;;;;;;;;;;;;;5069221;28;19974;-72
2022/02/17 16:11:06;;;;;;;;;;;;;;;;;;5066083;28;20009;-72
2022/02/17 16:13:32;;;;;;;;;;;;;;;;;;5064996;28;19964;-73
2022/02/17 16:15:58;;;;;;;;;;;;;;;;;;5065233;28;19963;-72
2022/02/17 16:18:24;;;;;;;;;;;;;;;;;;5060242;28;20027;-72
2022/02/17 16:20:50;;;;;;;;;;;;;;;;;;5068194;28;19952;-73
2022/02/17 16:23:17;;;;;;;;;;;;;;;;;;5067218;28;20381;-72
2022/02/17 16:25:43;;;;;;;;;;;;;;;;;;5063346;28;20422;-72
2022/02/17 16:28:09;;;;;;;;;;;;;;;;;;5063327;28;19988;-72
2022/02/17 16:30:35;;;;;;;;;;;;;;;;;;5065163;28;19951;-72
2022/02/17 16:33:01;;;;;;;;;;;;;;;;;;5064480;28;20398;-71
2022/02/17 16:35:27;;;;;;;;;;;;;;;;;;5064623;28;19960;-72
2022/02/17 16:37:54;;;;;;;;;;;;;;;;;;5066534;28;20870;-72
2022/02/17 16:40:20;;;;;;;;;;;;;;;;;;5064472;28;19916;-73
2022/02/17 16:42:46;;;;;;;;;;;;;;;;;;5063888;28;19956;-72
2022/02/17 16:45:18;;;;;;;;;;;;;;;;;;5062071;28;20097;-72